sensor_id;sensor_type;location;lat;lon;timestamp;pressure;altitude;pressure_sealevel;temperature;humidity
64192;BME280;50497;50.720;-2.084;2023-05-10T00:02:17;101569.13;;;10.42;100.00
64192;BME280;50497;50.720;-2.084;2023-05-10T00:04:42;101602.50;;;10.57;100.00
64192;BME280;50497;50.720;-2.084;2023-05-10T00:07:11;101597.16;;;10.57;100.00
64192;BME280;50497;50.720;-2.084;2023-05-10T00:09:37;101594.78;;;10.47;100.00
64192;BME280;50497;50.720;-2.084;2023-05-10T00:12:02;101594.09;;;10.41;100.00
64192;BME280;50497;50.720;-2.084;2023-05-10T00:14:28;101555.66;;;10.16;100.00
64192;BME280;50497;50.720;-2.084;2023-05-10T00:16:56;101554.69;;;10.17;100.00
64192;BME280;50497;50.720;-2.084;2023-05-10T00:19:22;101592.78;;;10.26;100.00
64192;BME280;50497;50.720;-2.084;2023-05-10T00:21:47;101581.25;;;10.24;100.00
64192;BME280;50497;50.720;-2.084;2023-05-10T00:24:13;101573.50;;;10.16;100.00
64192;BME280;50497;50.720;-2.084;2023-05-10T00:26:43;101571.97;;;10.07;100.00
64192;BME280;50497;50.720;-2.084;2023-05-10T00:29:08;101577.59;;;9.99;100.00
64192;BME280;50497;50.720;-2.084;2023-05-10T00:31:34;101580.53;;;9.90;100.00
64192;BME280;50497;50.720;-2.084;2023-05-10T00:33:59;101593.13;;;9.87;100.00
64192;BME280;50497;50.720;-2.084;2023-05-10T00:36:25;101596.91;;;9.79;100.00
64192;BME280;50497;50.720;-2.084;2023-05-10T00:38:51;101596.31;;;9.70;100.00
64192;BME280;50497;50.720;-2.084;2023-05-10T00:41:16;101573.00;;;9.45;100.00
64192;BME280;50497;50.720;-2.084;2023-05-10T00:43:42;101628.34;;;9.71;100.00
64192;BME280;50497;50.720;-2.084;2023-05-10T00:46:07;101610.28;;;9.50;100.00
64192;BME280;50497;50.720;-2.084;2023-05-10T00:48:36;101616.69;;;9.42;100.00
64192;BME280;50497;50.720;-2.084;2023-05-10T00:51:03;101632.47;;;9.52;100.00
64192;BME280;50497;50.720;-2.084;2023-05-10T00:53:34;101652.06;;;9.51;100.00
64192;BME280;50497;50.720;-2.084;2023-05-10T00:56:00;101662.84;;;9.48;100.00
64192;BME280;50497;50.720;-2.084;2023-05-10T00:58:29;101673.75;;;9.40;100.00
64192;BME280;50497;50.720;-2.084;2023-05-10T01:00:56;101669.44;;;9.34;100.00
64192;BME280;50497;50.720;-2.084;2023-05-10T01:03:22;101643.47;;;9.08;100.00
64192;BME280;50497;50.720;-2.084;2023-05-10T01:05:47;101681.41;;;9.19;100.00
64192;BME280;50497;50.720;-2.084;2023-05-10T01:08:14;101683.31;;;9.14;100.00
64192;BME280;50497;50.720;-2.084;2023-05-10T01:10:40;101681.72;;;9.09;100.00
64192;BME280;50497;50.720;-2.084;2023-05-10T01:13:06;101692.38;;;9.09;100.00
64192;BME280;50497;50.720;-2.084;2023-05-10T01:15:31;101693.22;;;9.11;100.00
64192;BME280;50497;50.720;-2.084;2023-05-10T01:18:01;101704.72;;;9.13;100.00
64192;BME280;50497;50.720;-2.084;2023-05-10T01:20:33;101709.38;;;9.04;100.00
64192;BME280;50497;50.720;-2.084;2023-05-10T01:29:07;101735.16;;;9.05;100.00
64192;BME280;50497;50.720;-2.084;2023-05-10T01:34:45;101721.66;;;8.76;100.00
64192;BME280;50497;50.720;-2.084;2023-05-10T01:40:35;101762.38;;;8.84;100.00
64192;BME280;50497;50.720;-2.084;2023-05-10T01:43:05;101745.13;;;8.61;100.00
64192;BME280;50497;50.720;-2.084;2023-05-10T01:46:02;101792.66;;;8.83;100.00
64192;BME280;50497;50.720;-2.084;2023-05-10T01:48:37;101801.66;;;8.79;100.00
64192;BME280;50497;50.720;-2.084;2023-05-10T01:51:06;101810.63;;;8.75;100.00
64192;BME280;50497;50.720;-2.084;2023-05-10T01:53:36;101820.41;;;8.76;100.00
64192;BME280;50497;50.720;-2.084;2023-05-10T01:56:07;101808.88;;;8.74;100.00
64192;BME280;50497;50.720;-2.084;2023-05-10T01:58:36;101833.81;;;8.71;100.00
64192;BME280;50497;50.720;-2.084;2023-05-10T02:01:05;101834.75;;;8.70;100.00
64192;BME280;50497;50.720;-2.084;2023-05-10T02:03:36;101850.03;;;8.63;100.00
64192;BME280;50497;50.720;-2.084;2023-05-10T02:06:04;101838.84;;;8.44;100.00
64192;BME280;50497;50.720;-2.084;2023-05-10T02:08:35;101859.13;;;8.51;100.00
64192;BME280;50497;50.720;-2.084;2023-05-10T02:11:02;101848.78;;;8.35;100.00
64192;BME280;50497;50.720;-2.084;2023-05-10T02:13:29;101885.00;;;8.48;100.00
64192;BME280;50497;50.720;-2.084;2023-05-10T02:15:57;101879.06;;;8.33;100.00
64192;BME280;50497;50.720;-2.084;2023-05-10T02:18:28;101896.66;;;8.44;100.00
64192;BME280;50497;50.720;-2.084;2023-05-10T02:20:56;101911.69;;;8.46;100.00
64192;BME280;50497;50.720;-2.084;2023-05-10T02:23:23;101891.50;;;8.31;100.00
64192;BME280;50497;50.720;-2.084;2023-05-10T02:25:54;101934.63;;;8.57;100.00
64192;BME280;50497;50.720;-2.084;2023-05-10T02:28:22;101942.59;;;8.58;100.00
64192;BME280;50497;50.720;-2.084;2023-05-10T02:30:48;101962.13;;;8.60;100.00
64192;BME280;50497;50.720;-2.084;2023-05-10T02:33:15;101951.56;;;8.54;100.00
64192;BME280;50497;50.720;-2.084;2023-05-10T02:35:41;101987.81;;;8.64;100.00
64192;BME280;50497;50.720;-2.084;2023-05-10T02:38:08;101990.53;;;8.63;100.00
64192;BME280;50497;50.720;-2.084;2023-05-10T02:40:37;102010.09;;;8.63;100.00
64192;BME280;50497;50.720;-2.084;2023-05-10T02:43:05;102013.00;;;8.49;100.00
64192;BME280;50497;50.720;-2.084;2023-05-10T02:45:35;102027.09;;;8.56;100.00
64192;BME280;50497;50.720;-2.084;2023-05-10T02:48:05;102042.94;;;8.65;100.00
64192;BME280;50497;50.720;-2.084;2023-05-10T02:50:32;102057.34;;;8.57;100.00
64192;BME280;50497;50.720;-2.084;2023-05-10T02:53:09;102063.69;;;8.49;100.00
64192;BME280;50497;50.720;-2.084;2023-05-10T02:55:40;102074.47;;;8.42;100.00
64192;BME280;50497;50.720;-2.084;2023-05-10T02:58:08;102069.28;;;8.31;100.00
64192;BME280;50497;50.720;-2.084;2023-05-10T03:00:33;102076.44;;;8.30;100.00
64192;BME280;50497;50.720;-2.084;2023-05-10T03:03:02;102084.59;;;8.20;100.00
64192;BME280;50497;50.720;-2.084;2023-05-10T03:05:33;102077.47;;;8.22;100.00
64192;BME280;50497;50.720;-2.084;2023-05-10T03:07:59;102086.34;;;8.21;100.00
64192;BME280;50497;50.720;-2.084;2023-05-10T03:10:32;102089.88;;;8.23;100.00
64192;BME280;50497;50.720;-2.084;2023-05-10T03:13:05;102096.25;;;8.12;100.00
64192;BME280;50497;50.720;-2.084;2023-05-10T03:18:33;102107.91;;;8.07;100.00
64192;BME280;50497;50.720;-2.084;2023-05-10T03:21:04;102109.66;;;8.06;100.00
64192;BME280;50497;50.720;-2.084;2023-05-10T03:24:07;102120.28;;;8.09;100.00
64192;BME280;50497;50.720;-2.084;2023-05-10T03:26:33;102122.16;;;8.04;100.00
64192;BME280;50497;50.720;-2.084;2023-05-10T03:29:04;102138.06;;;8.10;100.00
64192;BME280;50497;50.720;-2.084;2023-05-10T03:31:31;102135.41;;;8.10;100.00
64192;BME280;50497;50.720;-2.084;2023-05-10T03:33:57;102151.34;;;8.13;100.00
64192;BME280;50497;50.720;-2.084;2023-05-10T03:36:26;102134.69;;;7.96;100.00
64192;BME280;50497;50.720;-2.084;2023-05-10T03:38:54;102133.81;;;7.97;100.00
64192;BME280;50497;50.720;-2.084;2023-05-10T03:41:26;102159.34;;;8.13;100.00
64192;BME280;50497;50.720;-2.084;2023-05-10T03:43:51;102177.94;;;8.15;100.00
64192;BME280;50497;50.720;-2.084;2023-05-10T03:46:17;102183.38;;;8.10;100.00
64192;BME280;50497;50.720;-2.084;2023-05-10T03:48:43;102184.13;;;8.20;100.00
64192;BME280;50497;50.720;-2.084;2023-05-10T03:51:08;102200.16;;;8.17;100.00
64192;BME280;50497;50.720;-2.084;2023-05-10T03:53:34;102201.06;;;8.14;100.00
64192;BME280;50497;50.720;-2.084;2023-05-10T03:56:02;102212.63;;;8.15;100.00
64192;BME280;50497;50.720;-2.084;2023-05-10T03:58:27;102227.69;;;8.18;100.00
64192;BME280;50497;50.720;-2.084;2023-05-10T04:01:00;102245.28;;;8.32;100.00
64192;BME280;50497;50.720;-2.084;2023-05-10T04:03:32;102254.22;;;8.28;100.00
64192;BME280;50497;50.720;-2.084;2023-05-10T04:06:01;102256.91;;;8.27;100.00
64192;BME280;50497;50.720;-2.084;2023-05-10T04:08:27;102272.75;;;8.39;100.00
64192;BME280;50497;50.720;-2.084;2023-05-10T04:10:54;102282.56;;;8.36;100.00
64192;BME280;50497;50.720;-2.084;2023-05-10T04:13:22;102285.25;;;8.36;100.00
64192;BME280;50497;50.720;-2.084;2023-05-10T04:15:48;102302.13;;;8.35;100.00
64192;BME280;50497;50.720;-2.084;2023-05-10T04:18:14;102295.97;;;8.29;100.00
64192;BME280;50497;50.720;-2.084;2023-05-10T04:20:47;102275.72;;;8.14;100.00
64192;BME280;50497;50.720;-2.084;2023-05-10T04:23:12;102316.28;;;8.43;100.00
64192;BME280;50497;50.720;-2.084;2023-05-10T04:25:39;102323.34;;;8.47;100.00
64192;BME280;50497;50.720;-2.084;2023-05-10T04:28:05;102327.78;;;8.48;100.00
64192;BME280;50497;50.720;-2.084;2023-05-10T04:30:30;102331.28;;;8.51;100.00
64192;BME280;50497;50.720;-2.084;2023-05-10T04:32:59;102332.28;;;8.40;100.00
64192;BME280;50497;50.720;-2.084;2023-05-10T04:35:25;102341.19;;;8.40;100.00
64192;BME280;50497;50.720;-2.084;2023-05-10T04:37:58;102353.63;;;8.43;100.00
64192;BME280;50497;50.720;-2.084;2023-05-10T04:40:24;102349.19;;;8.42;100.00
64192;BME280;50497;50.720;-2.084;2023-05-10T04:42:49;102347.38;;;8.47;100.00
64192;BME280;50497;50.720;-2.084;2023-05-10T04:45:19;102357.16;;;8.45;100.00
64192;BME280;50497;50.720;-2.084;2023-05-10T04:47:48;102354.34;;;8.57;100.00
64192;BME280;50497;50.720;-2.084;2023-05-10T04:50:14;102351.66;;;8.57;100.00
64192;BME280;50497;50.720;-2.084;2023-05-10T04:52:40;102365.78;;;8.67;100.00
64192;BME280;50497;50.720;-2.084;2023-05-10T04:55:06;102365.78;;;8.65;100.00
64192;BME280;50497;50.720;-2.084;2023-05-10T04:57:37;102375.50;;;8.69;100.00
64192;BME280;50497;50.720;-2.084;2023-05-10T05:00:06;102378.13;;;8.73;100.00
64192;BME280;50497;50.720;-2.084;2023-05-10T05:02:31;102383.47;;;8.74;100.00
64192;BME280;50497;50.720;-2.084;2023-05-10T05:04:59;102388.03;;;8.64;100.00
64192;BME280;50497;50.720;-2.084;2023-05-10T05:07:25;102404.78;;;8.76;100.00
64192;BME280;50497;50.720;-2.084;2023-05-10T05:09:54;102414.56;;;8.78;100.00
64192;BME280;50497;50.720;-2.084;2023-05-10T05:12:19;102424.25;;;8.84;100.00
64192;BME280;50497;50.720;-2.084;2023-05-10T05:14:45;102433.03;;;8.92;100.00
64192;BME280;50497;50.720;-2.084;2023-05-10T05:17:11;102439.16;;;9.00;100.00
64192;BME280;50497;50.720;-2.084;2023-05-10T05:19:36;102438.09;;;9.14;100.00
64192;BME280;50497;50.720;-2.084;2023-05-10T05:22:02;102446.84;;;9.25;100.00
64192;BME280;50497;50.720;-2.084;2023-05-10T05:24:27;102462.69;;;9.36;100.00
64192;BME280;50497;50.720;-2.084;2023-05-10T05:26:53;102466.91;;;9.51;100.00
64192;BME280;50497;50.720;-2.084;2023-05-10T05:29:18;102467.59;;;9.65;100.00
64192;BME280;50497;50.720;-2.084;2023-05-10T05:31:44;102475.38;;;9.79;100.00
64192;BME280;50497;50.720;-2.084;2023-05-10T05:34:09;102463.78;;;9.82;100.00
64192;BME280;50497;50.720;-2.084;2023-05-10T05:36:38;102466.28;;;9.91;100.00
64192;BME280;50497;50.720;-2.084;2023-05-10T05:39:07;102491.78;;;10.12;100.00
64192;BME280;50497;50.720;-2.084;2023-05-10T05:41:33;102482.13;;;10.03;100.00
64192;BME280;50497;50.720;-2.084;2023-05-10T05:43:58;102488.28;;;10.08;100.00
64192;BME280;50497;50.720;-2.084;2023-05-10T05:46:24;102476.72;;;10.08;100.00
64192;BME280;50497;50.720;-2.084;2023-05-10T05:48:49;102480.19;;;10.13;100.00
64192;BME280;50497;50.720;-2.084;2023-05-10T05:51:15;102442.06;;;10.00;100.00
64192;BME280;50497;50.720;-2.084;2023-05-10T05:53:40;102471.28;;;10.11;100.00
64192;BME280;50497;50.720;-2.084;2023-05-10T05:56:06;102473.81;;;10.20;100.00
64192;BME280;50497;50.720;-2.084;2023-05-10T05:58:34;102477.28;;;10.24;100.00
64192;BME280;50497;50.720;-2.084;2023-05-10T06:01:00;102476.28;;;10.32;100.00
64192;BME280;50497;50.720;-2.084;2023-05-10T06:03:26;102469.00;;;10.39;100.00
64192;BME280;50497;50.720;-2.084;2023-05-10T06:05:52;102452.09;;;10.39;100.00
64192;BME280;50497;50.720;-2.084;2023-05-10T06:08:17;102447.50;;;10.45;100.00
64192;BME280;50497;50.720;-2.084;2023-05-10T06:10:43;102451.59;;;10.63;100.00
64192;BME280;50497;50.720;-2.084;2023-05-10T06:13:09;102427.25;;;10.76;100.00
64192;BME280;50497;50.720;-2.084;2023-05-10T06:15:35;102405.56;;;10.88;100.00
64192;BME280;50497;50.720;-2.084;2023-05-10T06:18:05;102403.41;;;11.04;100.00
64192;BME280;50497;50.720;-2.084;2023-05-10T06:20:31;102381.69;;;11.18;100.00
64192;BME280;50497;50.720;-2.084;2023-05-10T06:22:58;102348.31;;;11.31;100.00
64192;BME280;50497;50.720;-2.084;2023-05-10T06:25:27;102306.94;;;11.43;100.00
64192;BME280;50497;50.720;-2.084;2023-05-10T06:27:56;102267.25;;;11.57;100.00
64192;BME280;50497;50.720;-2.084;2023-05-10T06:30:26;102203.13;;;11.81;100.00
64192;BME280;50497;50.720;-2.084;2023-05-10T06:32:54;102131.97;;;12.29;100.00
64192;BME280;50497;50.720;-2.084;2023-05-10T06:35:20;102052.91;;;12.39;100.00
64192;BME280;50497;50.720;-2.084;2023-05-10T06:37:46;101987.97;;;12.53;100.00
64192;BME280;50497;50.720;-2.084;2023-05-10T06:40:16;101913.19;;;12.67;100.00
64192;BME280;50497;50.720;-2.084;2023-05-10T06:42:46;101855.16;;;13.31;100.00
64192;BME280;50497;50.720;-2.084;2023-05-10T06:45:13;101789.50;;;13.79;100.00
64192;BME280;50497;50.720;-2.084;2023-05-10T06:47:43;101730.13;;;14.23;100.00
64192;BME280;50497;50.720;-2.084;2023-05-10T06:50:21;101689.38;;;14.50;100.00
64192;BME280;50497;50.720;-2.084;2023-05-10T06:52:49;101676.16;;;15.17;100.00
64192;BME280;50497;50.720;-2.084;2023-05-10T06:55:19;101688.78;;;15.34;100.00
64192;BME280;50497;50.720;-2.084;2023-05-10T06:57:45;101733.09;;;15.63;100.00
64192;BME280;50497;50.720;-2.084;2023-05-10T07:00:12;101803.06;;;15.66;100.00
64192;BME280;50497;50.720;-2.084;2023-05-10T07:02:37;101865.34;;;15.44;100.00
64192;BME280;50497;50.720;-2.084;2023-05-10T07:05:03;101864.56;;;15.23;100.00
64192;BME280;50497;50.720;-2.084;2023-05-10T07:07:33;101910.97;;;15.49;100.00
64192;BME280;50497;50.720;-2.084;2023-05-10T07:10:03;101942.09;;;16.10;100.00
64192;BME280;50497;50.720;-2.084;2023-05-10T07:12:29;101974.09;;;16.00;100.00
64192;BME280;50497;50.720;-2.084;2023-05-10T07:14:55;102000.56;;;16.29;100.00
64192;BME280;50497;50.720;-2.084;2023-05-10T07:17:21;102031.44;;;16.05;100.00
64192;BME280;50497;50.720;-2.084;2023-05-10T07:19:46;102026.72;;;17.14;100.00
64192;BME280;50497;50.720;-2.084;2023-05-10T07:22:12;102068.75;;;17.20;100.00
64192;BME280;50497;50.720;-2.084;2023-05-10T07:24:38;102089.47;;;16.51;100.00
64192;BME280;50497;50.720;-2.084;2023-05-10T07:27:04;102079.63;;;17.02;100.00
64192;BME280;50497;50.720;-2.084;2023-05-10T07:29:29;102114.72;;;17.37;100.00
64192;BME280;50497;50.720;-2.084;2023-05-10T07:31:55;102136.25;;;16.51;100.00
64192;BME280;50497;50.720;-2.084;2023-05-10T07:34:20;102128.44;;;16.08;100.00
64192;BME280;50497;50.720;-2.084;2023-05-10T07:36:56;102112.78;;;17.06;100.00
64192;BME280;50497;50.720;-2.084;2023-05-10T07:39:22;102122.06;;;16.65;100.00
64192;BME280;50497;50.720;-2.084;2023-05-10T07:41:47;102089.72;;;16.10;100.00
64192;BME280;50497;50.720;-2.084;2023-05-10T07:44:13;102069.22;;;15.67;100.00
64192;BME280;50497;50.720;-2.084;2023-05-10T07:46:38;102049.94;;;15.18;100.00
64192;BME280;50497;50.720;-2.084;2023-05-10T07:49:04;102002.53;;;14.93;100.00
64192;BME280;50497;50.720;-2.084;2023-05-10T07:51:29;101973.41;;;15.02;100.00
64192;BME280;50497;50.720;-2.084;2023-05-10T07:53:55;101960.66;;;14.86;100.00
64192;BME280;50497;50.720;-2.084;2023-05-10T07:56:32;101953.44;;;14.68;100.00
64192;BME280;50497;50.720;-2.084;2023-05-10T07:59:02;101945.44;;;14.85;100.00
64192;BME280;50497;50.720;-2.084;2023-05-10T08:01:33;101950.78;;;15.06;100.00
64192;BME280;50497;50.720;-2.084;2023-05-10T08:03:59;101945.22;;;15.47;100.00
64192;BME280;50497;50.720;-2.084;2023-05-10T08:06:25;101975.88;;;15.63;100.00
64192;BME280;50497;50.720;-2.084;2023-05-10T08:08:52;101973.41;;;15.78;100.00
64192;BME280;50497;50.720;-2.084;2023-05-10T08:11:22;101971.84;;;16.08;100.00
64192;BME280;50497;50.720;-2.084;2023-05-10T08:13:49;101974.16;;;15.62;100.00
64192;BME280;50497;50.720;-2.084;2023-05-10T08:16:18;102002.41;;;15.92;100.00
64192;BME280;50497;50.720;-2.084;2023-05-10T08:18:45;101979.56;;;15.24;100.00
64192;BME280;50497;50.720;-2.084;2023-05-10T08:21:12;101952.97;;;14.77;100.00
64192;BME280;50497;50.720;-2.084;2023-05-10T08:23:38;101885.00;;;14.51;100.00
64192;BME280;50497;50.720;-2.084;2023-05-10T08:26:03;101806.72;;;14.16;100.00
64192;BME280;50497;50.720;-2.084;2023-05-10T08:28:29;101777.06;;;14.18;100.00
64192;BME280;50497;50.720;-2.084;2023-05-10T08:30:55;101768.66;;;14.05;100.00
64192;BME280;50497;50.720;-2.084;2023-05-10T08:33:27;101740.16;;;13.80;100.00
64192;BME280;50497;50.720;-2.084;2023-05-10T08:35:52;101690.84;;;13.61;100.00
64192;BME280;50497;50.720;-2.084;2023-05-10T08:38:18;101700.16;;;13.73;100.00
64192;BME280;50497;50.720;-2.084;2023-05-10T08:40:44;101672.81;;;13.63;100.00
64192;BME280;50497;50.720;-2.084;2023-05-10T08:43:15;101672.13;;;13.97;100.00
64192;BME280;50497;50.720;-2.084;2023-05-10T08:45:48;101642.75;;;14.12;100.00
64192;BME280;50497;50.720;-2.084;2023-05-10T08:48:15;101641.00;;;14.30;100.00
64192;BME280;50497;50.720;-2.084;2023-05-10T08:50:42;101610.13;;;14.19;100.00
64192;BME280;50497;50.720;-2.084;2023-05-10T08:53:12;101607.28;;;14.59;100.00
64192;BME280;50497;50.720;-2.084;2023-05-10T08:55:39;101617.94;;;15.30;100.00
64192;BME280;50497;50.720;-2.084;2023-05-10T08:58:09;101645.16;;;15.43;100.00
64192;BME280;50497;50.720;-2.084;2023-05-10T09:00:35;101651.06;;;15.50;100.00
64192;BME280;50497;50.720;-2.084;2023-05-10T09:03:04;101675.88;;;16.39;100.00
64192;BME280;50497;50.720;-2.084;2023-05-10T09:05:30;101722.84;;;16.53;100.00
64192;BME280;50497;50.720;-2.084;2023-05-10T09:07:56;101755.25;;;16.03;100.00
64192;BME280;50497;50.720;-2.084;2023-05-10T09:10:22;101757.25;;;16.00;100.00
64192;BME280;50497;50.720;-2.084;2023-05-10T09:13:01;101774.78;;;16.08;100.00
64192;BME280;50497;50.720;-2.084;2023-05-10T09:15:31;101791.72;;;15.95;100.00
64192;BME280;50497;50.720;-2.084;2023-05-10T09:18:00;101823.56;;;15.17;100.00
64192;BME280;50497;50.720;-2.084;2023-05-10T09:20:32;101827.31;;;15.85;100.00
64192;BME280;50497;50.720;-2.084;2023-05-10T09:22:58;101808.63;;;16.65;100.00
64192;BME280;50497;50.720;-2.084;2023-05-10T09:25:24;101860.41;;;17.83;100.00
64192;BME280;50497;50.720;-2.084;2023-05-10T09:27:50;101980.41;;;17.68;100.00
64192;BME280;50497;50.720;-2.084;2023-05-10T09:32:45;102036.59;;;17.31;100.00
64192;BME280;50497;50.720;-2.084;2023-05-10T09:35:17;102016.44;;;16.52;100.00
64192;BME280;50497;50.720;-2.084;2023-05-10T09:37:44;101962.81;;;16.10;100.00
64192;BME280;50497;50.720;-2.084;2023-05-10T09:40:13;101930.81;;;15.84;100.00
64192;BME280;50497;50.720;-2.084;2023-05-10T09:42:41;101875.06;;;15.29;100.00
64192;BME280;50497;50.720;-2.084;2023-05-10T09:45:08;101831.50;;;15.01;100.00
64192;BME280;50497;50.720;-2.084;2023-05-10T09:47:35;101798.84;;;14.89;100.00
64192;BME280;50497;50.720;-2.084;2023-05-10T09:50:02;101778.56;;;15.36;100.00
64192;BME280;50497;50.720;-2.084;2023-05-10T09:55:18;101750.16;;;15.99;100.00
64192;BME280;50497;50.720;-2.084;2023-05-10T09:57:44;101736.59;;;17.12;100.00
64192;BME280;50497;50.720;-2.084;2023-05-10T10:00:22;101797.63;;;17.32;100.00
64192;BME280;50497;50.720;-2.084;2023-05-10T10:02:53;101898.13;;;17.86;100.00
64192;BME280;50497;50.720;-2.084;2023-05-10T10:05:19;101974.56;;;17.91;100.00
64192;BME280;50497;50.720;-2.084;2023-05-10T10:07:45;102005.47;;;17.87;100.00
64192;BME280;50497;50.720;-2.084;2023-05-10T10:10:11;102011.84;;;17.86;100.00
64192;BME280;50497;50.720;-2.084;2023-05-10T10:12:40;102024.69;;;17.67;100.00
64192;BME280;50497;50.720;-2.084;2023-05-10T10:15:08;102057.06;;;17.84;100.00
64192;BME280;50497;50.720;-2.084;2023-05-10T10:17:35;102075.16;;;17.01;100.00
64192;BME280;50497;50.720;-2.084;2023-05-10T10:20:06;102053.91;;;17.44;100.00
64192;BME280;50497;50.720;-2.084;2023-05-10T10:22:33;102053.16;;;16.91;100.00
64192;BME280;50497;50.720;-2.084;2023-05-10T10:24:59;102073.72;;;16.76;100.00
64192;BME280;50497;50.720;-2.084;2023-05-10T10:27:45;102007.06;;;16.77;100.00
64192;BME280;50497;50.720;-2.084;2023-05-10T10:30:28;102003.56;;;17.89;100.00
64192;BME280;50497;50.720;-2.084;2023-05-10T10:35:33;102078.41;;;18.06;100.00
64192;BME280;50497;50.720;-2.084;2023-05-10T10:38:00;102089.09;;;17.76;100.00
64192;BME280;50497;50.720;-2.084;2023-05-10T10:40:26;102081.28;;;17.87;100.00
64192;BME280;50497;50.720;-2.084;2023-05-10T10:42:53;102100.66;;;17.30;100.00
64192;BME280;50497;50.720;-2.084;2023-05-10T10:45:21;102159.22;;;17.65;100.00
64192;BME280;50497;50.720;-2.084;2023-05-10T10:47:47;102132.47;;;17.92;100.00
64192;BME280;50497;50.720;-2.084;2023-05-10T10:50:13;102199.97;;;18.44;100.00
64192;BME280;50497;50.720;-2.084;2023-05-10T10:52:46;102136.19;;;18.99;100.00
64192;BME280;50497;50.720;-2.084;2023-05-10T10:55:19;102190.28;;;19.02;100.00
64192;BME280;50497;50.720;-2.084;2023-05-10T11:02:56;102205.56;;;17.41;100.00
64192;BME280;50497;50.720;-2.084;2023-05-10T11:08:09;102119.75;;;19.17;100.00
64192;BME280;50497;50.720;-2.084;2023-05-10T11:10:36;102187.97;;;18.64;100.00
64192;BME280;50497;50.720;-2.084;2023-05-10T11:13:07;102186.19;;;17.66;100.00
64192;BME280;50497;50.720;-2.084;2023-05-10T11:21:02;102100.28;;;17.54;100.00
64192;BME280;50497;50.720;-2.084;2023-05-10T11:26:30;102091.69;;;17.12;100.00
64192;BME280;50497;50.720;-2.084;2023-05-10T11:28:56;102097.81;;;16.81;100.00
64192;BME280;50497;50.720;-2.084;2023-05-10T11:31:27;102088.91;;;16.96;100.00
64192;BME280;50497;50.720;-2.084;2023-05-10T11:33:55;102067.06;;;16.84;100.00
64192;BME280;50497;50.720;-2.084;2023-05-10T11:36:25;102071.38;;;16.70;100.00
64192;BME280;50497;50.720;-2.084;2023-05-10T11:38:51;102006.50;;;16.18;100.00
64192;BME280;50497;50.720;-2.084;2023-05-10T11:41:18;101994.06;;;15.79;100.00
64192;BME280;50497;50.720;-2.084;2023-05-10T11:43:46;101923.47;;;15.69;100.00
64192;BME280;50497;50.720;-2.084;2023-05-10T11:46:24;101862.41;;;15.49;100.00
64192;BME280;50497;50.720;-2.084;2023-05-10T11:48:51;101808.88;;;15.94;100.00
64192;BME280;50497;50.720;-2.084;2023-05-10T11:51:21;101793.59;;;17.39;100.00
64192;BME280;50497;50.720;-2.084;2023-05-10T11:53:52;101828.69;;;18.16;100.00
64192;BME280;50497;50.720;-2.084;2023-05-10T11:56:18;101863.25;;;18.55;100.00
64192;BME280;50497;50.720;-2.084;2023-05-10T11:58:53;101916.56;;;19.54;100.00
64192;BME280;50497;50.720;-2.084;2023-05-10T12:01:21;101993.75;;;19.50;100.00
64192;BME280;50497;50.720;-2.084;2023-05-10T12:03:47;101964.16;;;19.18;100.00
64192;BME280;50497;50.720;-2.084;2023-05-10T12:06:20;102014.28;;;18.82;100.00
64192;BME280;50497;50.720;-2.084;2023-05-10T12:08:50;102021.25;;;18.11;100.00
64192;BME280;50497;50.720;-2.084;2023-05-10T12:11:19;102016.88;;;17.29;100.00
64192;BME280;50497;50.720;-2.084;2023-05-10T12:13:46;101998.47;;;16.69;100.00
64192;BME280;50497;50.720;-2.084;2023-05-10T12:16:18;102013.81;;;16.33;100.00
64192;BME280;50497;50.720;-2.084;2023-05-10T12:18:45;101963.69;;;16.10;100.00
64192;BME280;50497;50.720;-2.084;2023-05-10T12:21:19;101881.69;;;15.78;100.00
64192;BME280;50497;50.720;-2.084;2023-05-10T12:23:51;101809.94;;;15.37;100.00
64192;BME280;50497;50.720;-2.084;2023-05-10T12:26:18;101759.56;;;15.20;100.00
64192;BME280;50497;50.720;-2.084;2023-05-10T12:28:43;101728.38;;;14.97;100.00
64192;BME280;50497;50.720;-2.084;2023-05-10T12:31:09;101682.31;;;14.67;100.00
64192;BME280;50497;50.720;-2.084;2023-05-10T12:33:43;101695.75;;;15.03;100.00
64192;BME280;50497;50.720;-2.084;2023-05-10T12:36:09;101673.78;;;15.28;100.00
64192;BME280;50497;50.720;-2.084;2023-05-10T12:38:42;101676.91;;;15.21;100.00
64192;BME280;50497;50.720;-2.084;2023-05-10T12:41:19;101685.91;;;15.37;100.00
64192;BME280;50497;50.720;-2.084;2023-05-10T12:43:45;101705.97;;;15.14;100.00
64192;BME280;50497;50.720;-2.084;2023-05-10T12:46:15;101689.69;;;16.01;100.00
64192;BME280;50497;50.720;-2.084;2023-05-10T12:48:42;101711.16;;;16.84;100.00
64192;BME280;50497;50.720;-2.084;2023-05-10T12:51:08;101756.97;;;17.48;100.00
64192;BME280;50497;50.720;-2.084;2023-05-10T12:53:46;101821.72;;;17.51;100.00
64192;BME280;50497;50.720;-2.084;2023-05-10T12:56:13;101831.25;;;17.58;100.00
64192;BME280;50497;50.720;-2.084;2023-05-10T12:58:38;101875.31;;;17.60;100.00
64192;BME280;50497;50.720;-2.084;2023-05-10T13:01:07;101872.66;;;17.12;100.00
64192;BME280;50497;50.720;-2.084;2023-05-10T13:03:33;101898.13;;;16.41;100.00
64192;BME280;50497;50.720;-2.084;2023-05-10T13:06:00;101915.81;;;15.60;100.00
64192;BME280;50497;50.720;-2.084;2023-05-10T13:08:30;101863.56;;;15.26;100.00
64192;BME280;50497;50.720;-2.084;2023-05-10T13:10:59;101803.88;;;14.78;100.00
64192;BME280;50497;50.720;-2.084;2023-05-10T13:13:24;101785.13;;;15.30;100.00
64192;BME280;50497;50.720;-2.084;2023-05-10T13:15:50;101760.16;;;15.44;100.00
64192;BME280;50497;50.720;-2.084;2023-05-10T13:18:16;101770.59;;;15.15;100.00